createdAt,value
2022-12-13T00:01:59.003Z,-0.65
2022-12-13T00:04:26.658Z,-0.67
2022-12-13T00:06:54.344Z,-0.79
2022-12-13T00:09:22.053Z,-0.88
2022-12-13T00:11:50.332Z,-0.87
2022-12-13T00:14:17.938Z,-0.98
2022-12-13T00:16:47.247Z,-1.03
2022-12-13T00:19:14.794Z,-1.15
2022-12-13T00:21:41.875Z,-1.12
2022-12-13T00:24:08.872Z,-1.12
2022-12-13T00:26:36.671Z,-1.14
2022-12-13T00:29:06.338Z,-1.15
2022-12-13T00:34:20.671Z,-1.19
2022-12-13T00:36:48.485Z,-1.28
2022-12-13T00:39:16.896Z,-1.37
2022-12-13T00:41:47.567Z,-1.33
2022-12-13T00:44:15.296Z,-1.23
2022-12-13T00:46:43.081Z,-1.14
2022-12-13T00:49:13.261Z,-1.16
2022-12-13T00:51:40.647Z,-1.16
2022-12-13T00:54:07.938Z,-1.15
2022-12-13T00:56:34.943Z,-1.10
2022-12-13T00:59:02.376Z,-1.04
2022-12-13T01:01:32.877Z,-1.05
2022-12-13T01:04:02.738Z,-1.02
2022-12-13T01:06:36.357Z,-1.00
2022-12-13T01:09:05.647Z,-1.02
2022-12-13T01:11:32.917Z,-1.00
2022-12-13T01:13:59.880Z,-1.06
2022-12-13T01:16:26.827Z,-0.97
2022-12-13T01:18:53.841Z,-0.91
2022-12-13T01:21:22.195Z,-0.88
2022-12-13T01:23:50.394Z,-0.92
2022-12-13T01:26:21.457Z,-0.84
2022-12-13T01:28:49.484Z,-0.84
2022-12-13T01:31:20.029Z,-0.80
2022-12-13T01:33:48.706Z,-0.77
2022-12-13T01:36:19.663Z,-0.75
2022-12-13T01:38:58.495Z,-0.72
2022-12-13T01:41:28.877Z,-0.69
2022-12-13T01:44:01.428Z,-0.66
2022-12-13T01:46:33.772Z,-0.67
2022-12-13T01:49:19.602Z,-0.66
2022-12-13T01:52:06.630Z,-0.66
2022-12-13T01:54:46.415Z,-0.63
2022-12-13T01:57:18.112Z,-0.62
2022-12-13T01:59:47.624Z,-0.61
2022-12-13T02:02:15.673Z,-0.63
2022-12-13T02:04:51.968Z,-0.64
2022-12-13T02:07:23.497Z,-0.63
2022-12-13T02:09:56.414Z,-0.65
2022-12-13T02:12:30.782Z,-0.66
2022-12-13T02:15:05.277Z,-0.68
2022-12-13T02:17:53.542Z,-0.69
2022-12-13T02:20:54.263Z,-0.73
2022-12-13T02:23:39.381Z,-0.75
2022-12-13T02:26:31.390Z,-0.79
2022-12-13T06:26:35.855Z,-3.52
2022-12-13T06:29:02.027Z,-3.35
2022-12-13T06:31:28.187Z,-3.13
2022-12-13T06:33:54.535Z,-2.88
2022-12-13T06:36:25.401Z,-2.61
2022-12-13T06:38:55.612Z,-2.37
2022-12-13T06:41:26.463Z,-2.12
2022-12-13T06:43:58.717Z,-1.89
2022-12-13T06:46:25.927Z,-1.69
2022-12-13T06:48:53.571Z,-1.50
2022-12-13T06:51:33.080Z,-1.35
2022-12-13T06:54:02.967Z,-1.20
2022-12-13T06:56:40.605Z,-1.08
2022-12-13T06:59:12.553Z,-0.99
2022-12-13T07:01:39.519Z,-0.92
2022-12-13T07:04:30.156Z,-0.88
2022-12-13T07:06:55.146Z,-0.73
2022-12-13T07:09:29.072Z,-0.65
2022-12-13T07:11:56.708Z,-0.60
2022-12-13T07:14:40.467Z,-0.56
2022-12-13T07:17:11.859Z,-0.49
2022-12-13T07:19:39.280Z,-0.45
2022-12-13T07:22:06.952Z,-0.35
2022-12-13T07:24:37.773Z,-0.29
2022-12-13T07:27:05.348Z,-0.23
2022-12-13T07:29:32.672Z,-0.21
2022-12-13T07:32:01.462Z,-0.11
2022-12-13T07:34:32.383Z,-0.02
2022-12-13T07:37:03.580Z,0.06
2022-12-13T07:39:36.864Z,0.04
2022-12-13T07:42:05.316Z,0.14
2022-12-13T07:44:33.882Z,0.20
2022-12-13T07:49:08.974Z,0.28
2022-12-13T07:51:36.352Z,0.34
2022-12-13T07:54:06.759Z,0.32
2022-12-13T07:56:35.673Z,0.38
2022-12-13T07:59:03.399Z,0.41
2022-12-13T08:01:35.229Z,0.46
2022-12-13T08:04:04.320Z,0.53
2022-12-13T08:06:36.239Z,0.56
2022-12-13T08:09:04.496Z,0.58
2022-12-13T08:11:31.936Z,0.62
2022-12-13T08:13:59.209Z,0.66
2022-12-13T08:16:29.353Z,0.63
2022-12-13T08:19:02.970Z,0.72
2022-12-13T08:21:56.671Z,0.78
2022-12-13T08:24:26.797Z,0.84
2022-12-13T08:26:55.447Z,0.87
2022-12-13T08:29:33.890Z,0.92
2022-12-13T08:32:08.681Z,0.96
2022-12-13T08:34:36.108Z,1.09
2022-12-13T08:37:04.325Z,1.15
2022-12-13T08:39:35.585Z,1.20
2022-12-13T08:42:17.148Z,1.27
2022-12-13T08:44:48.224Z,1.38
2022-12-13T08:47:23.015Z,1.42
2022-12-13T08:50:02.517Z,1.49
2022-12-13T08:52:39.407Z,1.47
2022-12-13T08:55:13.855Z,1.54
2022-12-13T08:57:42.922Z,1.52
2022-12-13T09:00:16.738Z,1.61
2022-12-13T09:02:44.695Z,1.59
2022-12-13T09:05:32.226Z,1.66
2022-12-13T09:08:22.967Z,1.74
2022-12-13T09:11:11.383Z,1.79
2022-12-13T09:13:50.024Z,1.87
2022-12-13T09:16:23.132Z,1.81
2022-12-13T09:18:54.800Z,1.87
2022-12-13T09:21:31.603Z,1.93
2022-12-13T09:24:01.886Z,1.91
2022-12-13T09:26:29.953Z,1.96
2022-12-13T09:29:10.523Z,1.97
2022-12-13T09:31:40.476Z,1.90
2022-12-13T09:34:08.836Z,1.91
2022-12-13T09:36:35.765Z,2.02
2022-12-13T09:39:03.630Z,2.05
2022-12-13T09:42:01.431Z,2.10
2022-12-13T09:44:42.721Z,2.05
2022-12-13T09:47:34.948Z,2.13
2022-12-13T09:50:08.576Z,2.16
2022-12-13T09:52:44.635Z,2.23
2022-12-13T09:55:30.257Z,2.32
2022-12-13T09:57:59.322Z,2.36
2022-12-13T10:00:35.887Z,2.41
2022-12-13T10:03:03.828Z,2.43
2022-12-13T10:05:39.818Z,2.48
2022-12-13T10:08:11.647Z,2.51
2022-12-13T10:10:38.861Z,2.53
2022-12-13T10:13:42.801Z,2.62
2022-12-13T10:16:14.040Z,2.64
2022-12-13T10:18:43.117Z,2.68
2022-12-13T15:00:26.366Z,-2.73
2022-12-13T15:02:55.741Z,-2.57
2022-12-13T15:05:50.189Z,-2.34
2022-12-13T15:08:20.367Z,-2.09
2022-12-13T15:11:02.160Z,-1.84
2022-12-13T15:13:47.222Z,-1.60
2022-12-13T15:16:29.694Z,-1.39
2022-12-13T15:19:31.116Z,-1.17
2022-12-13T15:22:07.704Z,-1.03
2022-12-13T15:24:48.738Z,-0.90
2022-12-13T15:27:27.313Z,-0.76
2022-12-13T15:29:55.246Z,-0.67
2022-12-13T15:32:25.399Z,-0.60
2022-12-13T15:34:53.161Z,-0.50
2022-12-13T15:37:30.261Z,-0.43
2022-12-13T15:40:07.989Z,-0.37
2022-12-13T15:42:39.228Z,-0.31
2022-12-13T15:45:17.656Z,-0.23
2022-12-13T15:47:47.614Z,-0.21
2022-12-13T15:50:50.439Z,-0.15
2022-12-13T15:53:27.262Z,-0.21
2022-12-13T15:55:54.780Z,-0.19
2022-12-13T15:58:33.464Z,-0.12
2022-12-13T16:01:06.016Z,-0.19
2022-12-13T16:03:43.506Z,-0.14
2022-12-13T16:06:18.072Z,-0.11
2022-12-13T16:08:49.631Z,-0.08
2022-12-13T16:11:31.890Z,-0.11
2022-12-13T16:14:30.706Z,-0.06
2022-12-13T16:17:08.335Z,-0.10
2022-12-13T16:19:37.210Z,-0.14
2022-12-13T16:22:08.685Z,-0.19
2022-12-13T16:24:38.382Z,-0.24
2022-12-13T16:27:08.497Z,-0.22
2022-12-13T16:29:36.146Z,-0.26
2022-12-13T16:32:03.508Z,-0.23
2022-12-13T16:34:36.136Z,-0.20
2022-12-13T16:37:03.597Z,-0.16
2022-12-13T16:39:36.246Z,-0.09
2022-12-13T16:42:03.301Z,-0.08
2022-12-13T16:44:37.570Z,0.00
2022-12-13T16:47:12.560Z,-0.02
2022-12-13T16:49:43.875Z,-0.02
2022-12-13T16:52:10.908Z,-0.03
2022-12-13T16:54:38.085Z,-0.10
2022-12-13T16:57:05.030Z,0.01
2022-12-13T16:59:33.382Z,0.05
2022-12-13T17:02:00.536Z,0.03
2022-12-13T17:04:29.095Z,0.03
2022-12-13T17:06:57.138Z,0.03
2022-12-13T17:09:25.683Z,-0.02
2022-12-13T17:11:54.404Z,0.00
2022-12-13T17:14:21.762Z,0.02
2022-12-13T17:16:48.840Z,0.04
2022-12-13T17:19:17.568Z,-0.03
2022-12-13T17:21:45.420Z,0.05
2022-12-13T17:24:13.155Z,0.08
2022-12-13T17:26:41.609Z,0.04
2022-12-13T17:29:24.799Z,0.05
2022-12-13T17:31:53.611Z,0.03
2022-12-13T17:34:21.592Z,-0.02
2022-12-13T17:36:49.127Z,-0.05
2022-12-13T17:39:18.792Z,-0.10
2022-12-13T17:41:54.470Z,-0.15
2022-12-13T17:44:26.613Z,-0.18
2022-12-13T17:46:55.677Z,-0.31
2022-12-13T17:49:23.791Z,-0.50
2022-12-13T17:51:54.380Z,-0.68
2022-12-13T17:54:24.018Z,-0.78
2022-12-13T17:56:52.246Z,-0.98
2022-12-13T17:59:20.188Z,-1.03
2022-12-13T18:01:47.907Z,-1.05
2022-12-13T18:04:15.492Z,-1.16
2022-12-13T18:06:42.872Z,-1.35
2022-12-13T18:09:14.294Z,-1.40
2022-12-13T18:11:41.521Z,-1.51
2022-12-13T20:44:59.706Z,-6.53
2022-12-13T20:47:27.486Z,-6.28
2022-12-13T20:49:53.493Z,-5.96
2022-12-13T20:52:20.736Z,-5.67
2022-12-13T20:54:48.795Z,-5.34
2022-12-13T20:57:19.036Z,-5.00
2022-12-13T20:59:49.499Z,-4.64
2022-12-13T21:02:18.641Z,-4.36
2022-12-13T21:04:50.637Z,-4.11
2022-12-13T21:07:38.395Z,-4.02
2022-12-13T21:10:11.727Z,-3.94
2022-12-13T21:12:39.195Z,-3.93
2022-12-13T21:15:06.692Z,-3.96
2022-12-13T21:17:33.893Z,-3.94
2022-12-13T21:20:00.866Z,-3.81
2022-12-13T21:22:27.934Z,-3.73
2022-12-13T21:24:55.588Z,-3.58
2022-12-13T21:27:22.846Z,-3.47
2022-12-13T21:29:50.110Z,-3.37
2022-12-13T21:32:17.257Z,-3.22
2022-12-13T21:34:44.463Z,-3.12
2022-12-13T21:37:11.319Z,-3.12
2022-12-13T21:39:38.368Z,-3.03
2022-12-13T21:42:05.581Z,-3.00
2022-12-13T21:44:32.917Z,-2.90
2022-12-13T21:47:15.352Z,-2.88
2022-12-13T21:49:48.752Z,-2.80
2022-12-13T21:52:16.811Z,-2.70
2022-12-13T21:54:43.734Z,-2.77
2022-12-13T21:57:29.540Z,-2.73
2022-12-13T21:59:56.489Z,-2.80
2022-12-13T22:02:23.352Z,-2.78
2022-12-13T22:04:54.410Z,-2.75
2022-12-13T22:07:22.674Z,-2.76
2022-12-13T22:09:50.413Z,-2.65
2022-12-13T22:12:20.400Z,-2.54
2022-12-13T22:14:47.803Z,-2.46
2022-12-13T22:17:14.997Z,-2.36
2022-12-13T22:19:42.161Z,-2.36
2022-12-13T22:22:09.530Z,-2.36
2022-12-13T22:24:36.336Z,-2.46
2022-12-13T22:27:04.114Z,-2.58
2022-12-13T22:29:31.088Z,-2.73
2022-12-13T22:31:57.882Z,-2.92
2022-12-13T22:34:24.705Z,-3.05
2022-12-13T22:36:52.264Z,-3.17
2022-12-13T22:39:21.208Z,-3.39
2022-12-13T22:41:49.162Z,-3.46
2022-12-13T22:44:17.439Z,-3.53
2022-12-13T22:46:44.512Z,-3.66
2022-12-13T22:49:12.194Z,-3.77
2022-12-13T22:51:39.562Z,-3.80
2022-12-13T22:54:06.964Z,-3.85
2022-12-13T22:56:34.061Z,-3.82
2022-12-13T22:59:02.324Z,-3.84
2022-12-13T23:01:32.404Z,-3.77
2022-12-13T23:04:00.098Z,-3.68
2022-12-13T23:06:29.879Z,-3.62
2022-12-13T23:09:01.403Z,-3.48
2022-12-13T23:11:48.457Z,-3.38
2022-12-13T23:14:18.906Z,-3.20
2022-12-13T23:16:47.155Z,-3.12
2022-12-13T23:22:05.306Z,-2.85
2022-12-13T23:24:32.430Z,-2.80
2022-12-13T23:26:59.469Z,-2.76
2022-12-13T23:29:26.561Z,-2.68
2022-12-13T23:31:53.773Z,-2.71
2022-12-13T23:34:20.680Z,-2.57
2022-12-13T23:36:47.583Z,-2.62
2022-12-13T23:39:14.665Z,-2.57
2022-12-13T23:41:41.963Z,-2.58
2022-12-13T23:44:10.619Z,-2.50
2022-12-13T23:46:38.386Z,-2.42
2022-12-13T23:49:07.336Z,-2.45
2022-12-13T23:51:34.806Z,-2.33
2022-12-13T23:54:01.914Z,-2.26
2022-12-13T23:56:29.654Z,-2.20
2022-12-13T23:58:57.102Z,-2.17
